sensor_id;sensor_type;location;lat;lon;timestamp;P1;durP1;ratioP1;P2;durP2;ratioP2
84662;SDS011;74891;59.208;18.220;2024-01-10T00:00:17;1.15;;;0.60;;
84662;SDS011;74891;59.208;18.220;2024-01-10T00:02:43;1.50;;;0.80;;
84662;SDS011;74891;59.208;18.220;2024-01-10T00:05:11;1.30;;;0.75;;
84662;SDS011;74891;59.208;18.220;2024-01-10T00:07:39;1.13;;;0.60;;
84662;SDS011;74891;59.208;18.220;2024-01-10T00:10:07;1.20;;;0.55;;
84662;SDS011;74891;59.208;18.220;2024-01-10T00:12:33;1.00;;;0.77;;
84662;SDS011;74891;59.208;18.220;2024-01-10T00:15:02;1.55;;;0.80;;
84662;SDS011;74891;59.208;18.220;2024-01-10T00:17:29;1.50;;;0.75;;
84662;SDS011;74891;59.208;18.220;2024-01-10T00:19:54;1.00;;;0.60;;
84662;SDS011;74891;59.208;18.220;2024-01-10T00:22:20;1.25;;;0.68;;
84662;SDS011;74891;59.208;18.220;2024-01-10T00:24:45;0.60;;;0.60;;
84662;SDS011;74891;59.208;18.220;2024-01-10T00:27:11;2.47;;;0.82;;
84662;SDS011;74891;59.208;18.220;2024-01-10T00:29:36;1.13;;;0.60;;
84662;SDS011;74891;59.208;18.220;2024-01-10T00:32:01;1.05;;;0.70;;
84662;SDS011;74891;59.208;18.220;2024-01-10T00:34:27;1.05;;;0.60;;
84662;SDS011;74891;59.208;18.220;2024-01-10T00:36:54;1.23;;;0.90;;
84662;SDS011;74891;59.208;18.220;2024-01-10T00:39:22;1.90;;;0.80;;
84662;SDS011;74891;59.208;18.220;2024-01-10T00:41:48;1.52;;;1.02;;
84662;SDS011;74891;59.208;18.220;2024-01-10T00:44:13;1.00;;;0.73;;
84662;SDS011;74891;59.208;18.220;2024-01-10T00:46:40;0.88;;;0.70;;
84662;SDS011;74891;59.208;18.220;2024-01-10T00:49:05;1.55;;;1.02;;
84662;SDS011;74891;59.208;18.220;2024-01-10T00:51:31;0.90;;;0.50;;
84662;SDS011;74891;59.208;18.220;2024-01-10T00:53:56;1.95;;;0.63;;
84662;SDS011;74891;59.208;18.220;2024-01-10T00:56:22;2.28;;;0.80;;
84662;SDS011;74891;59.208;18.220;2024-01-10T00:58:47;0.82;;;0.52;;
84662;SDS011;74891;59.208;18.220;2024-01-10T01:01:15;1.38;;;0.77;;
84662;SDS011;74891;59.208;18.220;2024-01-10T01:03:43;0.95;;;0.63;;
84662;SDS011;74891;59.208;18.220;2024-01-10T01:06:11;1.63;;;0.60;;
84662;SDS011;74891;59.208;18.220;2024-01-10T01:08:37;1.40;;;0.60;;
84662;SDS011;74891;59.208;18.220;2024-01-10T01:11:02;1.05;;;0.45;;
84662;SDS011;74891;59.208;18.220;2024-01-10T01:15:56;1.30;;;0.70;;
84662;SDS011;74891;59.208;18.220;2024-01-10T01:18:22;1.15;;;0.80;;
84662;SDS011;74891;59.208;18.220;2024-01-10T01:20:47;0.68;;;0.50;;
84662;SDS011;74891;59.208;18.220;2024-01-10T01:23:15;1.10;;;0.57;;
84662;SDS011;74891;59.208;18.220;2024-01-10T01:25:40;0.73;;;0.63;;
84662;SDS011;74891;59.208;18.220;2024-01-10T01:28:06;0.75;;;0.60;;
84662;SDS011;74891;59.208;18.220;2024-01-10T01:30:31;1.10;;;0.60;;
84662;SDS011;74891;59.208;18.220;2024-01-10T01:32:57;0.90;;;0.60;;
84662;SDS011;74891;59.208;18.220;2024-01-10T01:35:25;1.15;;;0.70;;
84662;SDS011;74891;59.208;18.220;2024-01-10T01:37:50;0.80;;;0.50;;
84662;SDS011;74891;59.208;18.220;2024-01-10T01:40:18;0.55;;;0.50;;
84662;SDS011;74891;59.208;18.220;2024-01-10T01:42:47;1.08;;;0.60;;
84662;SDS011;74891;59.208;18.220;2024-01-10T01:47:41;2.25;;;0.80;;
84662;SDS011;74891;59.208;18.220;2024-01-10T01:50:12;1.10;;;0.60;;
84662;SDS011;74891;59.208;18.220;2024-01-10T01:52:38;1.10;;;0.50;;
84662;SDS011;74891;59.208;18.220;2024-01-10T01:55:06;2.40;;;0.70;;
84662;SDS011;74891;59.208;18.220;2024-01-10T01:57:36;2.60;;;0.82;;
84662;SDS011;74891;59.208;18.220;2024-01-10T02:00:05;2.03;;;0.90;;
84662;SDS011;74891;59.208;18.220;2024-01-10T02:02:34;2.55;;;0.90;;
84662;SDS011;74891;59.208;18.220;2024-01-10T02:05:13;2.30;;;1.02;;
84662;SDS011;74891;59.208;18.220;2024-01-10T02:07:40;3.53;;;1.20;;
84662;SDS011;74891;59.208;18.220;2024-01-10T02:10:08;2.22;;;1.13;;
84662;SDS011;74891;59.208;18.220;2024-01-10T02:12:36;4.43;;;1.10;;
84662;SDS011;74891;59.208;18.220;2024-01-10T02:15:01;2.92;;;0.95;;
84662;SDS011;74891;59.208;18.220;2024-01-10T02:17:28;1.52;;;0.90;;
84662;SDS011;74891;59.208;18.220;2024-01-10T02:20:12;1.20;;;0.90;;
84662;SDS011;74891;59.208;18.220;2024-01-10T02:25:12;1.48;;;0.75;;
84662;SDS011;74891;59.208;18.220;2024-01-10T02:27:46;3.28;;;0.77;;
84662;SDS011;74891;59.208;18.220;2024-01-10T02:30:12;1.33;;;0.75;;
84662;SDS011;74891;59.208;18.220;2024-01-10T02:32:42;0.82;;;0.50;;
84662;SDS011;74891;59.208;18.220;2024-01-10T02:35:08;1.85;;;0.85;;
84662;SDS011;74891;59.208;18.220;2024-01-10T02:37:33;1.02;;;0.60;;
84662;SDS011;74891;59.208;18.220;2024-01-10T02:39:59;0.55;;;0.50;;
84662;SDS011;74891;59.208;18.220;2024-01-10T02:42:27;0.88;;;0.60;;
84662;SDS011;74891;59.208;18.220;2024-01-10T02:47:19;1.23;;;0.73;;
84662;SDS011;74891;59.208;18.220;2024-01-10T02:49:47;1.55;;;0.80;;
84662;SDS011;74891;59.208;18.220;2024-01-10T02:52:13;0.90;;;0.52;;
84662;SDS011;74891;59.208;18.220;2024-01-10T02:54:38;1.08;;;0.50;;
84662;SDS011;74891;59.208;18.220;2024-01-10T02:57:06;1.30;;;0.70;;
84662;SDS011;74891;59.208;18.220;2024-01-10T02:59:31;1.23;;;0.63;;
84662;SDS011;74891;59.208;18.220;2024-01-10T03:01:57;0.68;;;0.60;;
84662;SDS011;74891;59.208;18.220;2024-01-10T03:04:22;2.10;;;0.63;;
84662;SDS011;74891;59.208;18.220;2024-01-10T03:06:48;1.88;;;0.50;;
84662;SDS011;74891;59.208;18.220;2024-01-10T03:09:13;0.65;;;0.50;;
84662;SDS011;74891;59.208;18.220;2024-01-10T03:11:39;2.08;;;0.70;;
84662;SDS011;74891;59.208;18.220;2024-01-10T03:14:07;0.75;;;0.60;;
84662;SDS011;74891;59.208;18.220;2024-01-10T03:16:34;2.05;;;0.60;;
84662;SDS011;74891;59.208;18.220;2024-01-10T03:19:03;0.77;;;0.50;;
84662;SDS011;74891;59.208;18.220;2024-01-10T03:21:31;0.93;;;0.50;;
84662;SDS011;74891;59.208;18.220;2024-01-10T03:24:00;1.20;;;0.60;;
84662;SDS011;74891;59.208;18.220;2024-01-10T03:26:26;1.45;;;0.75;;
84662;SDS011;74891;59.208;18.220;2024-01-10T03:28:53;0.68;;;0.40;;
84662;SDS011;74891;59.208;18.220;2024-01-10T03:31:21;0.73;;;0.55;;
84662;SDS011;74891;59.208;18.220;2024-01-10T03:33:47;1.40;;;0.70;;
84662;SDS011;74891;59.208;18.220;2024-01-10T03:36:14;1.08;;;0.52;;
84662;SDS011;74891;59.208;18.220;2024-01-10T03:38:43;0.75;;;0.43;;
84662;SDS011;74891;59.208;18.220;2024-01-10T03:41:15;0.82;;;0.52;;
84662;SDS011;74891;59.208;18.220;2024-01-10T03:43:41;0.90;;;0.40;;
84662;SDS011;74891;59.208;18.220;2024-01-10T03:46:10;0.90;;;0.40;;
84662;SDS011;74891;59.208;18.220;2024-01-10T03:48:36;1.58;;;0.60;;
84662;SDS011;74891;59.208;18.220;2024-01-10T03:51:13;1.23;;;0.63;;
84662;SDS011;74891;59.208;18.220;2024-01-10T03:53:39;0.68;;;0.50;;
84662;SDS011;74891;59.208;18.220;2024-01-10T03:56:05;0.55;;;0.50;;
84662;SDS011;74891;59.208;18.220;2024-01-10T03:58:34;0.55;;;0.55;;
84662;SDS011;74891;59.208;18.220;2024-01-10T04:01:03;0.82;;;0.50;;
84662;SDS011;74891;59.208;18.220;2024-01-10T04:03:30;1.10;;;0.40;;
84662;SDS011;74891;59.208;18.220;2024-01-10T04:05:55;0.80;;;0.40;;
84662;SDS011;74891;59.208;18.220;2024-01-10T04:08:21;1.15;;;0.52;;
84662;SDS011;74891;59.208;18.220;2024-01-10T04:10:50;0.77;;;0.50;;
84662;SDS011;74891;59.208;18.220;2024-01-10T04:13:18;0.70;;;0.60;;
84662;SDS011;74891;59.208;18.220;2024-01-10T04:15:44;0.77;;;0.55;;
84662;SDS011;74891;59.208;18.220;2024-01-10T04:18:12;1.55;;;0.60;;
84662;SDS011;74891;59.208;18.220;2024-01-10T04:20:39;1.30;;;0.50;;
84662;SDS011;74891;59.208;18.220;2024-01-10T04:23:05;1.02;;;0.60;;
84662;SDS011;74891;59.208;18.220;2024-01-10T04:25:33;0.73;;;0.60;;
84662;SDS011;74891;59.208;18.220;2024-01-10T04:28:00;0.68;;;0.50;;
84662;SDS011;74891;59.208;18.220;2024-01-10T04:30:28;1.40;;;0.50;;
84662;SDS011;74891;59.208;18.220;2024-01-10T04:32:54;0.70;;;0.50;;
84662;SDS011;74891;59.208;18.220;2024-01-10T04:35:19;0.70;;;0.60;;
84662;SDS011;74891;59.208;18.220;2024-01-10T04:37:45;0.93;;;0.52;;
84662;SDS011;74891;59.208;18.220;2024-01-10T04:40:10;1.58;;;0.50;;
84662;SDS011;74891;59.208;18.220;2024-01-10T04:42:36;1.10;;;0.65;;
84662;SDS011;74891;59.208;18.220;2024-01-10T04:45:04;0.52;;;0.45;;
84662;SDS011;74891;59.208;18.220;2024-01-10T04:47:34;0.63;;;0.40;;
84662;SDS011;74891;59.208;18.220;2024-01-10T04:50:00;0.80;;;0.55;;
84662;SDS011;74891;59.208;18.220;2024-01-10T04:52:25;1.08;;;0.60;;
84662;SDS011;74891;59.208;18.220;2024-01-10T04:54:51;0.88;;;0.50;;
84662;SDS011;74891;59.208;18.220;2024-01-10T04:57:16;0.88;;;0.52;;
84662;SDS011;74891;59.208;18.220;2024-01-10T04:59:44;0.95;;;0.65;;
84662;SDS011;74891;59.208;18.220;2024-01-10T05:02:10;1.08;;;0.80;;
84662;SDS011;74891;59.208;18.220;2024-01-10T05:04:36;2.08;;;0.98;;
84662;SDS011;74891;59.208;18.220;2024-01-10T05:07:04;0.93;;;0.70;;
84662;SDS011;74891;59.208;18.220;2024-01-10T05:09:29;0.88;;;0.57;;
84662;SDS011;74891;59.208;18.220;2024-01-10T05:11:55;0.90;;;0.70;;
84662;SDS011;74891;59.208;18.220;2024-01-10T05:14:20;1.20;;;0.60;;
84662;SDS011;74891;59.208;18.220;2024-01-10T05:16:48;2.33;;;0.50;;
84662;SDS011;74891;59.208;18.220;2024-01-10T05:19:13;1.23;;;0.50;;
84662;SDS011;74891;59.208;18.220;2024-01-10T05:21:39;0.90;;;0.55;;
84662;SDS011;74891;59.208;18.220;2024-01-10T05:24:07;0.73;;;0.40;;
84662;SDS011;74891;59.208;18.220;2024-01-10T05:26:36;2.00;;;0.57;;
84662;SDS011;74891;59.208;18.220;2024-01-10T05:29:01;0.80;;;0.45;;
84662;SDS011;74891;59.208;18.220;2024-01-10T05:31:26;1.77;;;0.52;;
84662;SDS011;74891;59.208;18.220;2024-01-10T05:33:52;1.08;;;0.50;;
84662;SDS011;74891;59.208;18.220;2024-01-10T05:36:21;0.98;;;0.60;;
84662;SDS011;74891;59.208;18.220;2024-01-10T05:38:47;1.70;;;0.45;;
84662;SDS011;74891;59.208;18.220;2024-01-10T05:41:16;0.85;;;0.50;;
84662;SDS011;74891;59.208;18.220;2024-01-10T05:43:41;0.80;;;0.55;;
84662;SDS011;74891;59.208;18.220;2024-01-10T05:46:12;0.85;;;0.45;;
84662;SDS011;74891;59.208;18.220;2024-01-10T05:48:37;2.13;;;0.47;;
84662;SDS011;74891;59.208;18.220;2024-01-10T05:51:03;0.50;;;0.40;;
84662;SDS011;74891;59.208;18.220;2024-01-10T05:53:36;1.10;;;0.40;;
84662;SDS011;74891;59.208;18.220;2024-01-10T05:56:07;0.95;;;0.50;;
84662;SDS011;74891;59.208;18.220;2024-01-10T05:58:35;1.48;;;0.60;;
84662;SDS011;74891;59.208;18.220;2024-01-10T06:01:00;0.93;;;0.50;;
84662;SDS011;74891;59.208;18.220;2024-01-10T06:03:26;0.70;;;0.40;;
84662;SDS011;74891;59.208;18.220;2024-01-10T06:05:51;1.40;;;0.70;;
84662;SDS011;74891;59.208;18.220;2024-01-10T06:08:16;0.75;;;0.60;;
84662;SDS011;74891;59.208;18.220;2024-01-10T06:10:44;0.57;;;0.43;;
84662;SDS011;74891;59.208;18.220;2024-01-10T06:13:15;0.80;;;0.55;;
84662;SDS011;74891;59.208;18.220;2024-01-10T06:15:41;1.15;;;0.65;;
84662;SDS011;74891;59.208;18.220;2024-01-10T06:18:06;1.02;;;0.77;;
84662;SDS011;74891;59.208;18.220;2024-01-10T06:20:34;0.93;;;0.50;;
84662;SDS011;74891;59.208;18.220;2024-01-10T06:23:03;1.55;;;0.60;;
84662;SDS011;74891;59.208;18.220;2024-01-10T06:25:29;0.68;;;0.52;;
84662;SDS011;74891;59.208;18.220;2024-01-10T06:27:54;1.75;;;0.50;;
84662;SDS011;74891;59.208;18.220;2024-01-10T06:30:20;1.25;;;0.50;;
84662;SDS011;74891;59.208;18.220;2024-01-10T06:32:45;0.82;;;0.52;;
84662;SDS011;74891;59.208;18.220;2024-01-10T06:35:11;0.73;;;0.50;;
84662;SDS011;74891;59.208;18.220;2024-01-10T06:37:39;0.90;;;0.60;;
84662;SDS011;74891;59.208;18.220;2024-01-10T06:40:08;0.80;;;0.60;;
84662;SDS011;74891;59.208;18.220;2024-01-10T06:42:34;0.73;;;0.50;;
84662;SDS011;74891;59.208;18.220;2024-01-10T06:45:00;0.90;;;0.50;;
84662;SDS011;74891;59.208;18.220;2024-01-10T06:47:25;0.55;;;0.30;;
84662;SDS011;74891;59.208;18.220;2024-01-10T06:49:54;0.88;;;0.60;;
84662;SDS011;74891;59.208;18.220;2024-01-10T06:52:22;0.90;;;0.68;;
84662;SDS011;74891;59.208;18.220;2024-01-10T06:54:47;1.25;;;0.70;;
84662;SDS011;74891;59.208;18.220;2024-01-10T06:57:13;0.80;;;0.60;;
84662;SDS011;74891;59.208;18.220;2024-01-10T06:59:39;1.10;;;0.80;;
84662;SDS011;74891;59.208;18.220;2024-01-10T07:02:06;1.50;;;0.90;;
84662;SDS011;74891;59.208;18.220;2024-01-10T07:04:37;1.02;;;0.73;;
84662;SDS011;74891;59.208;18.220;2024-01-10T07:07:03;1.20;;;0.68;;
84662;SDS011;74891;59.208;18.220;2024-01-10T07:09:29;2.53;;;0.75;;
84662;SDS011;74891;59.208;18.220;2024-01-10T07:11:54;1.75;;;1.20;;
84662;SDS011;74891;59.208;18.220;2024-01-10T07:14:19;1.88;;;1.33;;
84662;SDS011;74891;59.208;18.220;2024-01-10T07:16:47;5.82;;;1.60;;
84662;SDS011;74891;59.208;18.220;2024-01-10T07:19:16;2.40;;;1.42;;
84662;SDS011;74891;59.208;18.220;2024-01-10T07:21:44;4.25;;;1.48;;
84662;SDS011;74891;59.208;18.220;2024-01-10T07:24:09;3.25;;;1.27;;
84662;SDS011;74891;59.208;18.220;2024-01-10T07:26:35;1.98;;;1.23;;
84662;SDS011;74891;59.208;18.220;2024-01-10T07:29:10;2.97;;;1.55;;
84662;SDS011;74891;59.208;18.220;2024-01-10T07:31:38;1.55;;;1.27;;
84662;SDS011;74891;59.208;18.220;2024-01-10T07:34:04;2.80;;;1.05;;
84662;SDS011;74891;59.208;18.220;2024-01-10T07:36:32;2.50;;;1.17;;
84662;SDS011;74891;59.208;18.220;2024-01-10T07:38:59;1.77;;;1.20;;
84662;SDS011;74891;59.208;18.220;2024-01-10T07:41:25;2.28;;;1.13;;
84662;SDS011;74891;59.208;18.220;2024-01-10T07:43:50;1.58;;;1.10;;
84662;SDS011;74891;59.208;18.220;2024-01-10T07:46:19;1.95;;;1.00;;
84662;SDS011;74891;59.208;18.220;2024-01-10T07:48:44;1.80;;;1.00;;
84662;SDS011;74891;59.208;18.220;2024-01-10T07:51:12;1.83;;;1.15;;
84662;SDS011;74891;59.208;18.220;2024-01-10T07:53:40;2.47;;;1.17;;
84662;SDS011;74891;59.208;18.220;2024-01-10T07:56:10;1.23;;;0.90;;
84662;SDS011;74891;59.208;18.220;2024-01-10T07:58:37;1.05;;;0.88;;
84662;SDS011;74891;59.208;18.220;2024-01-10T08:01:03;1.30;;;0.98;;
84662;SDS011;74891;59.208;18.220;2024-01-10T08:03:29;3.22;;;1.40;;
84662;SDS011;74891;59.208;18.220;2024-01-10T08:05:55;2.58;;;1.08;;
84662;SDS011;74891;59.208;18.220;2024-01-10T08:08:20;0.93;;;0.80;;
84662;SDS011;74891;59.208;18.220;2024-01-10T08:10:48;1.45;;;1.00;;
84662;SDS011;74891;59.208;18.220;2024-01-10T08:13:13;3.67;;;1.10;;
84662;SDS011;74891;59.208;18.220;2024-01-10T08:15:41;2.03;;;1.20;;
84662;SDS011;74891;59.208;18.220;2024-01-10T08:18:07;3.60;;;1.00;;
84662;SDS011;74891;59.208;18.220;2024-01-10T08:20:38;1.80;;;1.30;;
84662;SDS011;74891;59.208;18.220;2024-01-10T08:23:04;2.95;;;1.10;;
84662;SDS011;74891;59.208;18.220;2024-01-10T08:25:32;1.35;;;1.10;;
84662;SDS011;74891;59.208;18.220;2024-01-10T08:27:57;1.95;;;1.02;;
84662;SDS011;74891;59.208;18.220;2024-01-10T08:30:25;1.05;;;0.75;;
84662;SDS011;74891;59.208;18.220;2024-01-10T08:32:51;2.67;;;0.90;;
84662;SDS011;74891;59.208;18.220;2024-01-10T08:35:17;1.35;;;1.10;;
84662;SDS011;74891;59.208;18.220;2024-01-10T08:37:44;1.48;;;1.00;;
84662;SDS011;74891;59.208;18.220;2024-01-10T08:40:11;1.88;;;1.27;;
84662;SDS011;74891;59.208;18.220;2024-01-10T08:42:42;2.25;;;1.40;;
84662;SDS011;74891;59.208;18.220;2024-01-10T08:45:07;1.20;;;0.90;;
84662;SDS011;74891;59.208;18.220;2024-01-10T08:47:35;1.80;;;0.80;;
84662;SDS011;74891;59.208;18.220;2024-01-10T08:50:01;0.75;;;0.60;;
84662;SDS011;74891;59.208;18.220;2024-01-10T08:52:30;0.80;;;0.63;;
84662;SDS011;74891;59.208;18.220;2024-01-10T08:54:56;0.82;;;0.55;;
84662;SDS011;74891;59.208;18.220;2024-01-10T08:57:21;0.85;;;0.57;;
84662;SDS011;74891;59.208;18.220;2024-01-10T08:59:47;1.73;;;0.60;;
84662;SDS011;74891;59.208;18.220;2024-01-10T09:02:12;1.52;;;0.68;;
84662;SDS011;74891;59.208;18.220;2024-01-10T09:04:38;0.85;;;0.40;;
84662;SDS011;74891;59.208;18.220;2024-01-10T09:07:04;0.57;;;0.45;;
84662;SDS011;74891;59.208;18.220;2024-01-10T09:09:37;1.15;;;0.60;;
84662;SDS011;74891;59.208;18.220;2024-01-10T09:12:03;0.82;;;0.68;;
84662;SDS011;74891;59.208;18.220;2024-01-10T09:14:29;0.93;;;0.68;;
84662;SDS011;74891;59.208;18.220;2024-01-10T09:16:54;0.95;;;0.60;;
84662;SDS011;74891;59.208;18.220;2024-01-10T09:19:20;1.67;;;0.70;;
84662;SDS011;74891;59.208;18.220;2024-01-10T09:21:45;1.70;;;0.93;;
84662;SDS011;74891;59.208;18.220;2024-01-10T09:24:11;0.85;;;0.60;;
84662;SDS011;74891;59.208;18.220;2024-01-10T09:26:42;1.95;;;0.60;;
84662;SDS011;74891;59.208;18.220;2024-01-10T09:29:11;1.20;;;0.50;;
84662;SDS011;74891;59.208;18.220;2024-01-10T09:31:42;0.40;;;0.40;;
84662;SDS011;74891;59.208;18.220;2024-01-10T09:34:10;2.10;;;0.65;;
84662;SDS011;74891;59.208;18.220;2024-01-10T09:36:35;0.77;;;0.60;;
84662;SDS011;74891;59.208;18.220;2024-01-10T09:39:01;2.22;;;0.60;;
84662;SDS011;74891;59.208;18.220;2024-01-10T09:41:30;1.20;;;0.50;;
84662;SDS011;74891;59.208;18.220;2024-01-10T09:44:05;0.70;;;0.40;;
84662;SDS011;74891;59.208;18.220;2024-01-10T09:46:31;0.60;;;0.43;;
84662;SDS011;74891;59.208;18.220;2024-01-10T09:48:59;0.63;;;0.40;;
84662;SDS011;74891;59.208;18.220;2024-01-10T09:51:27;0.82;;;0.70;;
84662;SDS011;74891;59.208;18.220;2024-01-10T09:53:54;0.45;;;0.30;;
84662;SDS011;74891;59.208;18.220;2024-01-10T09:56:25;0.45;;;0.40;;
84662;SDS011;74891;59.208;18.220;2024-01-10T09:58:50;0.60;;;0.40;;
84662;SDS011;74891;59.208;18.220;2024-01-10T10:01:18;2.22;;;0.50;;
84662;SDS011;74891;59.208;18.220;2024-01-10T10:03:46;1.90;;;0.40;;
84662;SDS011;74891;59.208;18.220;2024-01-10T10:06:16;2.67;;;0.43;;
84662;SDS011;74891;59.208;18.220;2024-01-10T10:08:41;0.88;;;0.47;;
84662;SDS011;74891;59.208;18.220;2024-01-10T10:11:11;1.13;;;0.32;;
84662;SDS011;74891;59.208;18.220;2024-01-10T10:13:39;1.15;;;0.40;;
84662;SDS011;74891;59.208;18.220;2024-01-10T10:16:07;0.70;;;0.30;;
84662;SDS011;74891;59.208;18.220;2024-01-10T10:18:41;0.40;;;0.30;;
84662;SDS011;74891;59.208;18.220;2024-01-10T10:23:37;0.60;;;0.40;;
84662;SDS011;74891;59.208;18.220;2024-01-10T10:26:13;2.85;;;0.40;;
84662;SDS011;74891;59.208;18.220;2024-01-10T10:28:46;0.70;;;0.40;;
84662;SDS011;74891;59.208;18.220;2024-01-10T10:31:17;0.95;;;0.40;;
84662;SDS011;74891;59.208;18.220;2024-01-10T10:33:46;1.42;;;0.30;;
84662;SDS011;74891;59.208;18.220;2024-01-10T10:38:39;1.20;;;0.30;;
84662;SDS011;74891;59.208;18.220;2024-01-10T10:41:05;0.95;;;0.40;;
84662;SDS011;74891;59.208;18.220;2024-01-10T10:43:36;1.35;;;0.60;;
84662;SDS011;74891;59.208;18.220;2024-01-10T10:46:04;0.95;;;0.52;;
84662;SDS011;74891;59.208;18.220;2024-01-10T10:48:35;0.70;;;0.40;;
84662;SDS011;74891;59.208;18.220;2024-01-10T10:53:36;0.70;;;0.50;;
84662;SDS011;74891;59.208;18.220;2024-01-10T10:56:10;1.58;;;0.50;;
84662;SDS011;74891;59.208;18.220;2024-01-10T10:58:40;0.80;;;0.40;;
84662;SDS011;74891;59.208;18.220;2024-01-10T11:01:07;1.10;;;0.50;;
84662;SDS011;74891;59.208;18.220;2024-01-10T11:03:36;1.83;;;0.60;;
84662;SDS011;74891;59.208;18.220;2024-01-10T11:06:03;1.60;;;0.90;;
84662;SDS011;74891;59.208;18.220;2024-01-10T11:08:36;4.90;;;1.40;;
84662;SDS011;74891;59.208;18.220;2024-01-10T11:11:06;1.23;;;0.80;;
84662;SDS011;74891;59.208;18.220;2024-01-10T11:24:12;0.90;;;0.40;;
84662;SDS011;74891;59.208;18.220;2024-01-10T11:26:38;1.65;;;0.70;;
84662;SDS011;74891;59.208;18.220;2024-01-10T11:29:06;2.78;;;1.10;;
84662;SDS011;74891;59.208;18.220;2024-01-10T11:31:37;2.30;;;0.65;;
84662;SDS011;74891;59.208;18.220;2024-01-10T11:34:04;2.08;;;0.38;;
84662;SDS011;74891;59.208;18.220;2024-01-10T11:36:29;1.17;;;0.60;;
84662;SDS011;74891;59.208;18.220;2024-01-10T11:38:59;1.77;;;0.77;;
84662;SDS011;74891;59.208;18.220;2024-01-10T11:41:33;0.40;;;0.40;;
84662;SDS011;74891;59.208;18.220;2024-01-10T11:46:46;1.60;;;1.00;;
84662;SDS011;74891;59.208;18.220;2024-01-10T11:49:16;1.05;;;0.60;;
84662;SDS011;74891;59.208;18.220;2024-01-10T11:51:43;0.73;;;0.60;;
84662;SDS011;74891;59.208;18.220;2024-01-10T11:54:09;2.28;;;0.60;;
84662;SDS011;74891;59.208;18.220;2024-01-10T11:56:54;1.15;;;0.70;;
84662;SDS011;74891;59.208;18.220;2024-01-10T11:59:20;1.23;;;0.90;;
84662;SDS011;74891;59.208;18.220;2024-01-10T12:01:46;3.03;;;1.30;;
84662;SDS011;74891;59.208;18.220;2024-01-10T12:04:14;1.98;;;1.40;;
84662;SDS011;74891;59.208;18.220;2024-01-10T12:06:40;1.95;;;1.60;;
84662;SDS011;74891;59.208;18.220;2024-01-10T12:09:05;2.97;;;1.50;;
84662;SDS011;74891;59.208;18.220;2024-01-10T12:11:41;0.80;;;0.60;;
84662;SDS011;74891;59.208;18.220;2024-01-10T12:14:09;1.20;;;0.77;;
84662;SDS011;74891;59.208;18.220;2024-01-10T12:16:35;1.45;;;0.70;;
84662;SDS011;74891;59.208;18.220;2024-01-10T12:19:04;0.38;;;0.30;;
84662;SDS011;74891;59.208;18.220;2024-01-10T12:21:32;1.55;;;0.70;;
84662;SDS011;74891;59.208;18.220;2024-01-10T12:23:58;0.82;;;0.40;;
84662;SDS011;74891;59.208;18.220;2024-01-10T12:26:23;1.17;;;0.63;;
84662;SDS011;74891;59.208;18.220;2024-01-10T12:28:55;0.93;;;0.45;;
84662;SDS011;74891;59.208;18.220;2024-01-10T12:31:22;0.85;;;0.40;;
84662;SDS011;74891;59.208;18.220;2024-01-10T12:36:16;0.82;;;0.40;;
84662;SDS011;74891;59.208;18.220;2024-01-10T12:38:43;1.85;;;0.60;;
84662;SDS011;74891;59.208;18.220;2024-01-10T12:41:09;0.98;;;0.60;;
84662;SDS011;74891;59.208;18.220;2024-01-10T12:43:35;2.75;;;0.88;;
84662;SDS011;74891;59.208;18.220;2024-01-10T12:46:08;2.08;;;1.00;;
84662;SDS011;74891;59.208;18.220;2024-01-10T12:48:38;1.70;;;0.90;;
84662;SDS011;74891;59.208;18.220;2024-01-10T12:51:10;6.60;;;1.00;;
84662;SDS011;74891;59.208;18.220;2024-01-10T12:53:38;1.33;;;0.85;;
84662;SDS011;74891;59.208;18.220;2024-01-10T12:56:11;1.23;;;0.55;;
84662;SDS011;74891;59.208;18.220;2024-01-10T12:58:39;1.55;;;0.73;;
84662;SDS011;74891;59.208;18.220;2024-01-10T13:01:08;2.05;;;0.55;;
84662;SDS011;74891;59.208;18.220;2024-01-10T13:03:37;0.90;;;0.70;;
84662;SDS011;74891;59.208;18.220;2024-01-10T13:06:16;1.88;;;0.73;;
84662;SDS011;74891;59.208;18.220;2024-01-10T13:08:43;2.78;;;0.63;;
84662;SDS011;74891;59.208;18.220;2024-01-10T13:11:10;3.45;;;1.65;;
84662;SDS011;74891;59.208;18.220;2024-01-10T13:13:36;2.83;;;1.90;;
84662;SDS011;74891;59.208;18.220;2024-01-10T13:16:02;2.38;;;1.30;;
84662;SDS011;74891;59.208;18.220;2024-01-10T13:18:28;2.15;;;1.05;;
84662;SDS011;74891;59.208;18.220;2024-01-10T13:20:54;4.15;;;1.50;;
84662;SDS011;74891;59.208;18.220;2024-01-10T13:23:20;1.25;;;0.70;;
84662;SDS011;74891;59.208;18.220;2024-01-10T13:25:48;0.90;;;0.70;;
84662;SDS011;74891;59.208;18.220;2024-01-10T13:28:17;2.28;;;0.80;;
84662;SDS011;74891;59.208;18.220;2024-01-10T13:30:43;2.15;;;0.50;;
84662;SDS011;74891;59.208;18.220;2024-01-10T13:33:11;0.90;;;0.40;;
84662;SDS011;74891;59.208;18.220;2024-01-10T13:35:40;1.50;;;0.40;;
84662;SDS011;74891;59.208;18.220;2024-01-10T13:38:05;3.30;;;1.10;;
84662;SDS011;74891;59.208;18.220;2024-01-10T13:40:31;1.58;;;0.82;;
84662;SDS011;74891;59.208;18.220;2024-01-10T13:42:59;2.78;;;1.00;;
84662;SDS011;74891;59.208;18.220;2024-01-10T13:45:27;5.00;;;1.27;;
84662;SDS011;74891;59.208;18.220;2024-01-10T13:47:55;2.08;;;1.10;;
84662;SDS011;74891;59.208;18.220;2024-01-10T13:50:21;2.15;;;0.95;;
84662;SDS011;74891;59.208;18.220;2024-01-10T13:52:49;3.13;;;1.20;;
84662;SDS011;74891;59.208;18.220;2024-01-10T13:57:48;2.90;;;1.20;;
84662;SDS011;74891;59.208;18.220;2024-01-10T14:00:14;3.15;;;0.95;;
84662;SDS011;74891;59.208;18.220;2024-01-10T14:02:42;3.88;;;1.27;;
84662;SDS011;74891;59.208;18.220;2024-01-10T14:05:08;1.58;;;0.82;;
84662;SDS011;74891;59.208;18.220;2024-01-10T14:07:37;1.88;;;0.95;;
84662;SDS011;74891;59.208;18.220;2024-01-10T14:10:09;1.85;;;0.90;;
84662;SDS011;74891;59.208;18.220;2024-01-10T14:12:37;5.32;;;1.48;;
84662;SDS011;74891;59.208;18.220;2024-01-10T14:15:03;3.22;;;1.85;;
84662;SDS011;74891;59.208;18.220;2024-01-10T14:17:31;2.47;;;1.10;;
84662;SDS011;74891;59.208;18.220;2024-01-10T14:19:56;2.47;;;1.48;;
84662;SDS011;74891;59.208;18.220;2024-01-10T14:22:22;3.30;;;1.45;;
84662;SDS011;74891;59.208;18.220;2024-01-10T14:24:49;3.42;;;1.98;;
84662;SDS011;74891;59.208;18.220;2024-01-10T14:27:15;4.30;;;2.03;;
84662;SDS011;74891;59.208;18.220;2024-01-10T14:29:41;4.05;;;1.80;;
84662;SDS011;74891;59.208;18.220;2024-01-10T14:32:07;4.40;;;2.85;;
84662;SDS011;74891;59.208;18.220;2024-01-10T14:34:32;3.70;;;2.53;;
84662;SDS011;74891;59.208;18.220;2024-01-10T14:36:58;2.35;;;1.40;;
84662;SDS011;74891;59.208;18.220;2024-01-10T14:39:24;3.47;;;2.47;;
84662;SDS011;74891;59.208;18.220;2024-01-10T14:41:51;4.95;;;2.92;;
84662;SDS011;74891;59.208;18.220;2024-01-10T14:44:16;0.93;;;0.60;;
84662;SDS011;74891;59.208;18.220;2024-01-10T14:46:45;0.98;;;0.60;;
84662;SDS011;74891;59.208;18.220;2024-01-10T14:49:11;0.90;;;0.63;;
84662;SDS011;74891;59.208;18.220;2024-01-10T14:51:38;4.50;;;0.63;;
84662;SDS011;74891;59.208;18.220;2024-01-10T14:54:04;0.88;;;0.70;;
84662;SDS011;74891;59.208;18.220;2024-01-10T14:56:29;1.30;;;0.73;;
84662;SDS011;74891;59.208;18.220;2024-01-10T14:58:55;0.73;;;0.40;;
84662;SDS011;74891;59.208;18.220;2024-01-10T15:01:20;0.63;;;0.43;;
84662;SDS011;74891;59.208;18.220;2024-01-10T15:03:46;0.98;;;0.80;;
84662;SDS011;74891;59.208;18.220;2024-01-10T15:06:17;1.10;;;0.68;;
84662;SDS011;74891;59.208;18.220;2024-01-10T15:08:42;1.25;;;0.70;;